logo tempoitalia

Diretta Meteo Kiruna, Sveziagiovedì 30 maggio ore 14:20

Mappa
Sereno 23 °C Sereno 24 Ore: T.min 9 T.max 23
Ponente Sud/Sud-Est Km/h 24 Punto di rugiada: 7 °C Umidità: 35% Visibilità: 10 Km
Il sole sorge alle: Il sole tramonta alle:
30 Maggio 2024 14:20 tempo osservato: Sereno Sereno 23 35 1011 vento: Nord S/SE 24
30 Maggio 2024 13:50 tempo osservato: Sereno Sereno 22 37 1011 vento: Nord S/SO 20.3
30 Maggio 2024 13:20 tempo osservato: Sereno Sereno 22 35 1011 vento: Nord S 24
30 Maggio 2024 12:50 tempo osservato: Sereno Sereno 23 31 1011 vento: Nord S/SO 20.3
30 Maggio 2024 12:20 tempo osservato: Nuvoloso Nuvoloso 23 31 1011 vento: Nord S/SO 27.8
30 Maggio 2024 11:50 tempo osservato: Nuvoloso Nuvoloso 23 31 1011 vento: Nord S 20.3
30 Maggio 2024 11:20 tempo osservato: Poco Nuvoloso Poco Nuvoloso 22 32 1011 vento: Nord S 20.3
30 Maggio 2024 10:50 tempo osservato: Sereno Sereno 22 35 1011 vento: Nord S 16.7
30 Maggio 2024 10:20 tempo osservato: Sereno Sereno 22 32 1011 vento: Nord S 18.5
30 Maggio 2024 09:20 tempo osservato: Sereno Sereno 22 37 1011 vento: Nord S 18.5
30 Maggio 2024 08:50 tempo osservato: Sereno Sereno 21 43 1011 vento: Nord S 11.1
30 Maggio 2024 08:20 tempo osservato: Poco Nuvoloso Poco Nuvoloso 20 56 1011 vento: Nord S 11.1
30 Maggio 2024 07:50 tempo osservato: Sereno Sereno 19 59 1012 vento: Nord S/SO 11.1
30 Maggio 2024 07:20 tempo osservato: Sereno Sereno 18 63 1011 vento: Nord N 5.5
30 Maggio 2024 06:50 tempo osservato: Sereno Sereno 14 87 1012 vento: Nord N 3.7
30 Maggio 2024 06:20 tempo osservato: Sereno Sereno 15 76 1012 vento: Nord N 5.5
30 Maggio 2024 05:50 tempo osservato: Sereno Sereno 14 82 1012 vento: Nord N 3.7
30 Maggio 2024 05:20 tempo osservato: Nuvoloso Nuvoloso 14 82 1012 vento: Nord N 5.5
30 Maggio 2024 04:50 tempo osservato: Sereno Sereno 11 100 1012 vento: Nord N 1.8
30 Maggio 2024 04:20 tempo osservato: Sereno Sereno 10 100 1012 vento: Nord N 0
30 Maggio 2024 03:50 tempo osservato: Sereno Sereno 9 100 1012 vento: Nord N 0
30 Maggio 2024 03:20 tempo osservato: Sereno Sereno 10 93 1012 vento: Nord N 0
30 Maggio 2024 02:50 tempo osservato: Poco Nuvoloso Poco Nuvoloso 11 93 1012 vento: Nord N 0
30 Maggio 2024 02:20 tempo osservato: Sereno Sereno 10 100 1012 vento: Nord N 0
30 Maggio 2024 01:50 tempo osservato: Sereno Sereno 11 93 1012 vento: Nord N 0
30 Maggio 2024 01:20 tempo osservato: Sereno Sereno 12 93 1012 vento: Nord N 0
30 Maggio 2024 00:50 tempo osservato: Sereno Sereno 13 93 1012 vento: Nord N 5.5
30 Maggio 2024 00:20 tempo osservato: Sereno Sereno 14 87 1012 vento: Nord N 5.5
29 Maggio 2024 23:50 tempo osservato: Sereno Sereno 16 77 1012 vento: Nord N 3.7
29 Maggio 2024 23:20 tempo osservato: Sereno Sereno 16 77 1012 vento: Nord N 7.4
29 Maggio 2024 22:50 tempo osservato: Sereno Sereno 17 72 1012 vento: Nord E/NE 7.4
29 Maggio 2024 22:20 tempo osservato: Sereno Sereno 18 67 1012 vento: Nord N 5.5
29 Maggio 2024 21:50 tempo osservato: Sereno Sereno 18 72 1012 vento: Nord N 5.5
29 Maggio 2024 21:20 tempo osservato: Sereno Sereno 19 68 1012 vento: Nord E/SE 13
29 Maggio 2024 20:50 tempo osservato: Sereno Sereno 20 59 1012 vento: Nord E/SE 16.7
29 Maggio 2024 20:20 tempo osservato: Sereno Sereno 21 52 1012 vento: Nord SE 13
29 Maggio 2024 19:50 tempo osservato: Sereno Sereno 21 56 1012 vento: Nord SE 14.8
29 Maggio 2024 19:20 tempo osservato: Sereno Sereno 21 56 1012 vento: Nord SE 16.7
29 Maggio 2024 18:50 tempo osservato: Sereno Sereno 22 49 1012 vento: Nord S/SE 16.7
29 Maggio 2024 18:20 tempo osservato: Sereno Sereno 22 53 1012 vento: Nord E/SE 9.3
29 Maggio 2024 17:50 tempo osservato: Sereno Sereno 21 52 1012 vento: Nord E/SE 14.8
29 Maggio 2024 17:20 tempo osservato: Sereno Sereno 22 49 1012 vento: Nord E/SE 14.8
29 Maggio 2024 16:50 tempo osservato: Sereno Sereno 22 46 1012 vento: Nord SE 14.8
29 Maggio 2024 16:20 tempo osservato: Poco Nuvoloso Poco Nuvoloso 23 43 1012 vento: Nord SE 13
29 Maggio 2024 15:50 tempo osservato: Poco Nuvoloso Poco Nuvoloso 22 43 1012 vento: Nord SE 18.5
29 Maggio 2024 15:20 tempo osservato: Molto Nuvoloso Molto Nuvoloso 22 49 1012 vento: Nord SE 11.1
29 Maggio 2024 14:50 tempo osservato: Molto Nuvoloso Molto Nuvoloso 22 49 1013 vento: Nord N 3.7